< < Back
Terminal Aerodrome Forecast


Current Version              Previous Versions:   1  2  3  4  5  6  7  8  9  

Terminal Aerodrome Forecast

537
FTUS44 KMOB 241100
TAFPNS
TAF
KPNS 241120Z 2412/2512 36006KT P6SM SKC
     FM241700 35007KT P6SM SKC
     FM250200 35004KT P6SM SKC=



Latest METAR

015
SAUS70 KWBC 250800 RRM
MTRPNS
METAR KPNS 250753Z AUTO 35006KT 10SM CLR 14/07 A3004 RMK AO2 SLP175
T01440072


USA.gov is the U.S. government's official web portal to all federal, state and local government web resources and services.